Terminal Aerodrome Forecast
Issued by NWS

Home | Current Version | Previous Version | Text Only | Print | Product List | Glossary On
Versions: 1 2 3 4 5 6 7 8 9 10 11 12 13 14 15 16
000
FTUS42 KFFC 230539 RRA
TAFFTY
TAF
KFTY 230539Z 2306/2324 11016G26KT 4SM SHRA BR OVC008
     FM231200 13011KT 6SM BR OVC006
      TEMPO 2312/2315 4SM SHRA BR OVC003
     FM231500 13009KT P6SM -RA OVC008
     FM232200 11007KT P6SM BKN020=

USA.gov is the U.S. government's official web portal to all federal, state and local government web resources and services.